Time;durP1;ratioP1;P1;durP2;ratioP2;P2;SDS_P1;SDS_P2;PMS_P1;PMS_P2;Temp;Humidity;BMP_temperature;BMP_pressure;BME280_temperature;BME280_humidity;BME280_pressure;Samples;Min_cycle;Max_cycle;Signal;HPM_P1;HPM_P2
2022/11/06 00:01:06;;;;;;;18.05;13.55;;;;;;;2.87;100.00;96069.00;5053425;28;20033;-59
2022/11/06 00:03:31;;;;;;;15.40;10.25;;;;;;;2.79;100.00;96068.59;5071309;28;20037;-59
2022/11/06 00:08:41;;;;;;;7.00;6.32;;;;;;;2.80;100.00;96075.50;5070216;28;20650;-59
2022/11/06 00:11:13;;;;;;;7.72;5.82;;;;;;;2.82;100.00;96076.25;5070316;28;20036;-62
2022/11/06 00:13:39;;;;;;;14.50;10.70;;;;;;;2.77;100.00;96071.31;5070407;28;20147;-61
2022/11/06 00:16:07;;;;;;;13.15;9.32;;;;;;;2.84;100.00;96085.66;5067906;28;20409;-69
2022/11/06 00:18:33;;;;;;;17.27;11.18;;;;;;;2.79;100.00;96079.00;5069046;28;20072;-70
2022/11/06 00:21:06;;;;;;;12.07;8.88;;;;;;;2.76;100.00;96079.19;5070298;28;20032;-69
2022/11/06 00:23:31;;;;;;;12.55;8.70;;;;;;;2.76;100.00;96074.81;5069046;28;20036;-69
2022/11/06 00:25:56;;;;;;;16.95;9.38;;;;;;;2.72;100.00;96061.16;5072792;28;20086;-69
2022/11/06 00:28:22;;;;;;;11.50;7.75;;;;;;;2.67;100.00;96065.78;5072027;28;20048;-69
2022/11/06 00:30:47;;;;;;;17.92;10.20;;;;;;;2.65;100.00;96062.44;5074856;28;20028;-59
2022/11/06 00:33:13;;;;;;;20.70;15.45;;;;;;;2.64;100.00;96059.91;5070083;28;20036;-50
2022/11/06 00:35:38;;;;;;;16.77;12.07;;;;;;;2.61;100.00;96062.66;5071766;28;20036;-62
2022/11/06 00:38:04;;;;;;;17.60;10.65;;;;;;;2.56;100.00;96058.56;5070531;28;20859;-62
2022/11/06 00:40:30;;;;;;;19.35;12.80;;;;;;;2.54;100.00;96047.41;5072517;28;20029;-62
2022/11/06 00:42:56;;;;;;;17.27;13.00;;;;;;;2.48;100.00;96052.09;5071743;28;20409;-62
2022/11/06 00:45:23;;;;;;;21.00;12.25;;;;;;;2.41;100.00;96049.00;5072904;28;20035;-62
2022/11/06 00:47:49;;;;;;;12.82;9.18;;;;;;;2.47;100.00;96045.22;5070872;28;20028;-62
2022/11/06 00:50:16;;;;;;;13.00;10.52;;;;;;;2.49;100.00;96053.78;5061637;28;20076;-69
2022/11/06 00:52:42;;;;;;;12.23;8.82;;;;;;;2.51;100.00;96044.97;5063387;28;20424;-52
2022/11/06 00:55:07;;;;;;;17.60;10.13;;;;;;;2.60;100.00;96053.19;5065691;28;20039;-62
2022/11/06 00:57:33;;;;;;;18.85;11.63;;;;;;;2.58;100.00;96059.31;5049372;28;20528;-62
2022/11/06 00:59:58;;;;;;;23.08;12.90;;;;;;;2.57;100.00;96044.66;5056654;28;20517;-62
2022/11/06 01:02:23;;;;;;;23.27;12.25;;;;;;;2.52;100.00;96038.84;5064387;28;20863;-62
2022/11/06 01:04:49;;;;;;;17.98;12.23;;;;;;;2.47;100.00;96053.03;5067801;28;20516;-62
2022/11/06 01:07:14;;;;;;;19.15;12.95;;;;;;;2.42;100.00;96048.06;5052898;28;20073;-62
2022/11/06 01:09:40;;;;;;;21.25;12.82;;;;;;;2.40;100.00;96048.13;5064366;28;20155;-64
2022/11/06 01:12:05;;;;;;;19.08;12.80;;;;;;;2.37;100.00;96042.28;5064225;28;20094;-59
2022/11/06 01:14:30;;;;;;;12.88;9.43;;;;;;;2.36;100.00;96040.59;5044669;28;20032;-59
2022/11/06 01:16:56;;;;;;;13.93;10.15;;;;;;;2.32;100.00;96044.28;5060910;28;20595;-58
2022/11/06 01:19:22;;;;;;;16.98;11.63;;;;;;;2.22;100.00;96044.78;5067003;28;20578;-58
2022/11/06 01:21:51;;;;;;;29.02;17.20;;;;;;;2.18;100.00;96040.66;5061297;28;20046;-59
2022/11/06 01:24:22;;;;;;;29.02;16.42;;;;;;;2.19;100.00;96039.75;5049972;28;20052;-59
2022/11/06 01:26:48;;;;;;;25.38;14.80;;;;;;;2.19;100.00;96042.34;5067431;28;20044;-58
2022/11/06 01:29:16;;;;;;;21.67;14.18;;;;;;;2.19;100.00;96031.09;5053783;28;20077;-69
2022/11/06 01:31:42;;;;;;;22.10;13.63;;;;;;;2.12;100.00;96023.66;5065145;28;20044;-54
2022/11/06 01:34:09;;;;;;;24.02;13.90;;;;;;;2.14;100.00;96021.81;5050580;28;21122;-56
2022/11/06 01:36:34;;;;;;;21.10;13.23;;;;;;;2.11;100.00;96010.75;5038583;28;20043;-57
2022/11/06 01:39:03;;;;;;;18.10;12.52;;;;;;;2.08;100.00;96008.28;5057357;28;20033;-55
2022/11/06 01:41:47;;;;;;;16.77;10.05;;;;;;;2.06;100.00;96005.78;5037695;28;20044;-56
2022/11/06 01:44:34;;;;;;;11.07;7.65;;;;;;;2.02;100.00;96003.44;5040213;28;20115;-56
2022/11/06 01:47:03;;;;;;;10.93;7.68;;;;;;;2.03;100.00;95999.91;5041021;28;20070;-51
2022/11/06 01:49:36;;;;;;;13.20;9.48;;;;;;;1.97;100.00;96004.53;5058063;28;20925;-69
2022/11/06 01:52:07;;;;;;;10.50;8.40;;;;;;;1.94;100.00;95999.50;5072856;28;20048;-70
2022/11/06 01:54:34;;;;;;;11.15;7.50;;;;;;;1.94;100.00;95991.72;5069295;28;20067;-70
2022/11/06 01:57:01;;;;;;;10.15;7.30;;;;;;;1.88;100.00;95981.66;5069731;28;20029;-70
2022/11/06 01:59:30;;;;;;;7.05;5.38;;;;;;;1.85;100.00;95986.97;5068306;28;20407;-69
2022/11/06 02:01:56;;;;;;;5.82;4.40;;;;;;;1.87;100.00;95990.34;5067087;28;20035;-69
2022/11/06 02:04:24;;;;;;;6.07;5.47;;;;;;;1.88;100.00;95994.63;5071947;28;20107;-69
2022/11/06 02:06:50;;;;;;;10.75;7.38;;;;;;;1.88;100.00;95993.78;5065999;28;20060;-59
2022/11/06 02:09:16;;;;;;;9.63;7.50;;;;;;;1.85;100.00;95987.84;5069891;28;20099;-58
2022/11/06 02:11:44;;;;;;;10.20;7.15;;;;;;;1.84;100.00;95980.97;5067485;28;20048;-59
2022/11/06 02:14:15;;;;;;;8.90;7.22;;;;;;;1.82;100.00;95984.56;5070370;28;20480;-60
2022/11/06 02:16:50;;;;;;;8.20;5.55;;;;;;;1.79;100.00;95974.34;5069299;28;20037;-59
2022/11/06 02:19:33;;;;;;;7.15;5.22;;;;;;;1.82;100.00;95963.78;5073100;28;20036;-59
2022/11/06 02:22:07;;;;;;;5.78;4.93;;;;;;;1.86;100.00;95965.28;5074491;28;20040;-58
2022/11/06 02:25:00;;;;;;;5.80;5.07;;;;;;;1.88;100.00;95968.66;5067861;28;20571;-59
2022/11/06 02:27:27;;;;;;;9.68;5.97;;;;;;;1.91;100.00;95967.66;5068763;28;20552;-69
2022/11/06 02:30:06;;;;;;;5.47;4.97;;;;;;;1.91;100.00;95963.31;5064836;28;20039;-61
2022/11/06 02:32:47;;;;;;;7.00;5.93;;;;;;;1.89;100.00;95967.75;5067336;28;20501;-61
2022/11/06 02:35:28;;;;;;;6.35;5.75;;;;;;;1.76;100.00;95954.56;5063927;28;20034;-61
2022/11/06 02:38:00;;;;;;;6.57;5.90;;;;;;;1.70;100.00;95950.53;5066429;28;20036;-61
2022/11/06 02:40:32;;;;;;;7.60;6.85;;;;;;;1.71;100.00;95959.16;5067932;28;20063;-61
2022/11/06 02:43:01;;;;;;;8.43;6.03;;;;;;;1.69;100.00;95956.66;5066747;28;20047;-60
2022/11/06 02:45:30;;;;;;;6.25;5.65;;;;;;;1.73;100.00;95954.72;5067384;28;20027;-61
2022/11/06 02:47:57;;;;;;;7.18;6.47;;;;;;;1.79;100.00;95949.22;5068085;28;20033;-60
2022/11/06 02:50:29;;;;;;;9.15;7.00;;;;;;;1.73;100.00;95954.72;5068421;28;20045;-59
2022/11/06 02:53:01;;;;;;;7.88;6.68;;;;;;;1.69;100.00;95953.22;5066984;28;20060;-59
2022/11/06 02:55:35;;;;;;;5.95;5.40;;;;;;;1.68;100.00;95956.72;5068140;28;20071;-59
2022/11/06 02:58:07;;;;;;;7.10;6.22;;;;;;;1.60;100.00;95957.13;5067662;28;20036;-59
2022/11/06 03:00:35;;;;;;;7.63;6.00;;;;;;;1.53;100.00;95958.38;5063977;28;20033;-59
2022/11/06 03:03:05;;;;;;;10.30;5.97;;;;;;;1.52;100.00;95954.09;5066893;28;20032;-59
2022/11/06 03:05:35;;;;;;;5.90;5.40;;;;;;;1.48;100.00;95952.59;5067965;28;20498;-69
2022/11/06 03:08:10;;;;;;;5.75;5.25;;;;;;;1.41;100.00;95952.88;5067883;28;20043;-58
2022/11/06 03:11:14;;;;;;;6.53;5.00;;;;;;;1.44;100.00;95951.91;5062179;28;20121;-58
2022/11/06 03:14:18;;;;;;;5.90;5.25;;;;;;;1.43;100.00;95948.44;5061248;28;20075;-59
2022/11/06 03:17:12;;;;;;;6.68;5.43;;;;;;;1.39;100.00;95946.94;5067562;28;20553;-59
2022/11/06 03:19:52;;;;;;;6.97;6.20;;;;;;;1.39;100.00;95946.94;5068542;28;20777;-58
2022/11/06 03:22:31;;;;;;;5.15;4.65;;;;;;;1.35;100.00;95942.84;5067498;28;20095;-58
2022/11/06 03:25:15;;;;;;;6.07;5.47;;;;;;;1.32;100.00;95949.94;5067126;28;20617;-59
2022/11/06 03:27:46;;;;;;;9.15;5.45;;;;;;;1.25;100.00;95954.63;5067416;28;20033;-61
2022/11/06 03:30:13;;;;;;;5.60;5.10;;;;;;;1.25;100.00;95950.25;5071606;28;20132;-62
2022/11/06 03:32:49;;;;;;;5.07;4.68;;;;;;;1.28;100.00;95957.03;5071602;28;20669;-61
2022/11/06 03:35:23;;;;;;;4.72;4.22;;;;;;;1.26;100.00;95957.09;5069564;28;20040;-61
2022/11/06 03:38:02;;;;;;;4.30;4.00;;;;;;;1.27;100.00;95961.38;5071885;28;20035;-61
2022/11/06 03:40:32;;;;;;;5.43;4.93;;;;;;;1.33;100.00;95962.00;5070061;28;20413;-61
2022/11/06 03:43:01;;;;;;;5.70;4.30;;;;;;;1.37;100.00;95974.72;5071090;28;20040;-59
2022/11/06 03:45:28;;;;;;;5.20;4.70;;;;;;;1.38;100.00;95972.97;5070715;28;20528;-62
2022/11/06 03:48:00;;;;;;;4.13;3.83;;;;;;;1.40;100.00;95973.75;5053561;28;20032;-50
2022/11/06 03:50:39;;;;;;;4.60;4.22;;;;;;;1.38;100.00;95976.41;5069671;28;20037;-52
2022/11/06 03:53:20;;;;;;;4.47;4.18;;;;;;;1.35;100.00;95958.41;5071384;28;20039;-51
2022/11/06 03:55:56;;;;;;;4.20;3.90;;;;;;;1.33;100.00;95965.41;5065833;28;20529;-53
2022/11/06 03:58:29;;;;;;;4.50;4.20;;;;;;;1.33;100.00;95968.03;5070974;28;20020;-51
2022/11/06 04:00:57;;;;;;;8.75;6.50;;;;;;;1.34;100.00;95967.09;5070931;28;20552;-53
2022/11/06 04:03:28;;;;;;;7.60;6.05;;;;;;;1.35;100.00;95965.34;5071489;28;20029;-51
2022/11/06 04:06:03;;;;;;;8.18;5.57;;;;;;;1.31;100.00;95963.81;5070886;28;20044;-60
2022/11/06 04:14:05;;;;;;;6.32;4.72;;;;;;;1.35;100.00;95963.59;5070504;28;20890;-61
2022/11/06 04:16:45;;;;;;;6.45;5.38;;;;;;;1.36;100.00;95961.84;5070833;28;20539;-60
2022/11/06 04:19:19;;;;;;;6.32;4.65;;;;;;;1.33;100.00;95956.81;5070234;28;20028;-60
2022/11/06 04:21:47;;;;;;;4.97;4.57;;;;;;;1.33;100.00;95970.63;5060693;28;20127;-70
2022/11/06 04:27:37;;;;;;;5.13;4.68;;;;;;;1.32;100.00;95987.09;5071280;28;20114;-70
2022/11/06 04:30:05;;;;;;;4.47;4.07;;;;;;;1.27;100.00;95997.69;5070868;28;20042;-70
2022/11/06 04:32:38;;;;;;;7.55;5.07;;;;;;;1.27;100.00;96002.06;5069166;28;20406;-70
2022/11/06 04:35:29;;;;;;;8.13;6.45;;;;;;;1.28;100.00;96021.91;5070453;28;20044;-70
2022/11/06 04:38:03;;;;;;;9.85;7.65;;;;;;;1.20;100.00;96019.69;5069492;28;20040;-70
2022/11/06 04:40:46;;;;;;;8.95;7.35;;;;;;;1.19;100.00;96022.34;5067892;28;20036;-57
2022/11/06 04:43:20;;;;;;;6.00;5.15;;;;;;;1.18;100.00;96011.13;5069314;28;20425;-61
2022/11/06 04:45:50;;;;;;;5.95;5.30;;;;;;;1.20;100.00;96006.72;5070664;28;20040;-56
2022/11/06 04:48:17;;;;;;;5.90;5.40;;;;;;;1.23;100.00;96009.16;5069389;28;20147;-55
2022/11/06 04:50:49;;;;;;;7.00;4.50;;;;;;;1.26;100.00;95997.78;5070248;28;20048;-56
2022/11/06 04:53:16;;;;;;;4.85;4.47;;;;;;;1.23;100.00;95985.81;5069248;28;20115;-58
2022/11/06 04:55:50;;;;;;;5.60;4.97;;;;;;;1.23;100.00;95983.22;5070015;28;20032;-57
2022/11/06 04:58:16;;;;;;;5.05;4.55;;;;;;;1.25;100.00;95972.78;5069268;28;20033;-56
2022/11/06 05:00:45;;;;;;;4.57;4.22;;;;;;;1.25;100.00;95957.22;5067103;28;20042;-59
2022/11/06 05:03:11;;;;;;;4.10;3.80;;;;;;;1.23;100.00;95956.44;5069486;28;20032;-58
2022/11/06 05:05:36;;;;;;;4.50;4.10;;;;;;;1.21;100.00;95947.88;5067706;28;20045;-51
2022/11/06 05:08:02;;;;;;;6.90;3.90;;;;;;;1.21;100.00;95940.94;5068914;28;20111;-49
2022/11/06 05:10:27;;;;;;;3.30;3.10;;;;;;;1.22;100.00;95936.63;5070579;28;20080;-51
2022/11/06 05:12:52;;;;;;;4.95;3.88;;;;;;;1.21;100.00;95927.13;5069253;28;20036;-49
2022/11/06 05:15:18;;;;;;;4.47;3.97;;;;;;;1.16;100.00;95916.16;5069743;28;20049;-53
2022/11/06 05:17:43;;;;;;;6.85;4.13;;;;;;;1.13;100.00;95915.41;5069463;28;20044;-53
2022/11/06 05:20:09;;;;;;;3.60;3.35;;;;;;;1.14;100.00;95909.28;5070548;28;20052;-62
2022/11/06 05:22:59;;;;;;;4.00;3.70;;;;;;;1.19;100.00;95900.44;5069193;28;20036;-62
2022/11/06 05:25:26;;;;;;;5.18;3.72;;;;;;;1.25;100.00;95900.13;5069311;28;20071;-61
2022/11/06 05:27:51;;;;;;;3.58;3.33;;;;;;;1.12;100.00;95905.94;5069828;28;20025;-61
2022/11/06 05:30:17;;;;;;;4.10;3.80;;;;;;;1.08;100.00;95898.38;5067454;28;20066;-61
2022/11/06 05:32:42;;;;;;;3.85;3.55;;;;;;;1.07;100.00;95894.97;5069275;28;20104;-61
2022/11/06 05:35:08;;;;;;;8.65;4.93;;;;;;;1.16;100.00;95898.84;5069574;28;20425;-60
2022/11/06 05:37:33;;;;;;;6.80;5.25;;;;;;;1.19;100.00;95893.50;5069402;28;20509;-60
2022/11/06 05:39:58;;;;;;;6.95;4.78;;;;;;;1.21;100.00;95889.06;5068775;28;20047;-56
2022/11/06 05:42:24;;;;;;;6.70;5.30;;;;;;;1.21;100.00;95875.25;5068669;28;20043;-51
2022/11/06 05:44:49;;;;;;;8.20;5.18;;;;;;;1.21;100.00;95880.44;5069370;28;20032;-53
2022/11/06 05:47:14;;;;;;;7.30;4.75;;;;;;;1.26;100.00;95873.28;5069395;28;20515;-51
2022/11/06 05:49:40;;;;;;;4.13;3.72;;;;;;;1.31;100.00;95875.59;5052644;28;20035;-54
2022/11/06 05:52:05;;;;;;;4.47;4.07;;;;;;;1.29;100.00;95862.75;5068069;28;20146;-49
2022/11/06 05:54:30;;;;;;;4.88;4.45;;;;;;;1.29;100.00;95866.16;5068432;28;20040;-53
2022/11/06 05:56:56;;;;;;;4.07;3.33;;;;;;;1.31;100.00;95866.09;5067744;28;20024;-53
2022/11/06 05:59:21;;;;;;;4.13;3.60;;;;;;;1.27;100.00;95854.19;5067743;28;20032;-58
2022/11/06 06:01:46;;;;;;;3.15;2.85;;;;;;;1.25;100.00;95854.28;5068321;28;20032;-61
2022/11/06 06:04:12;;;;;;;3.60;3.25;;;;;;;1.27;100.00;95846.41;5068909;28;20076;-61
2022/11/06 06:06:37;;;;;;;3.22;3.00;;;;;;;1.26;100.00;95845.56;5067665;28;20033;-60
2022/11/06 06:09:03;;;;;;;4.13;3.17;;;;;;;1.27;100.00;95851.59;5068923;28;20100;-61
2022/11/06 06:11:28;;;;;;;6.03;5.53;;;;;;;1.27;100.00;95852.44;5058937;28;20448;-60
2022/11/06 06:13:54;;;;;;;25.58;23.48;;;;;;;1.25;100.00;95856.88;5068942;28;20040;-60
2022/11/06 06:16:19;;;;;;;10.30;9.40;;;;;;;1.31;100.00;95860.03;5069167;28;20451;-60
2022/11/06 06:18:48;;;;;;;5.85;5.35;;;;;;;1.29;100.00;95849.78;5067925;28;20036;-59
2022/11/06 06:21:13;;;;;;;4.22;3.72;;;;;;;1.26;100.00;95852.53;5066730;28;20075;-58
2022/11/06 06:23:39;;;;;;;5.10;4.60;;;;;;;1.21;100.00;95854.50;5069020;28;20450;-58
2022/11/06 06:26:04;;;;;;;6.05;5.15;;;;;;;1.21;100.00;95852.75;5068545;28;20507;-59
2022/11/06 06:28:30;;;;;;;7.00;5.60;;;;;;;1.21;100.00;95862.28;5068380;28;20520;-59
2022/11/06 06:30:56;;;;;;;10.05;6.05;;;;;;;1.24;100.00;95864.75;5067858;28;20036;-59
2022/11/06 06:33:21;;;;;;;5.28;4.70;;;;;;;1.21;100.00;95867.47;5067789;28;20028;-59
2022/11/06 06:35:46;;;;;;;5.60;4.32;;;;;;;1.19;100.00;95861.53;5068611;28;20035;-59
2022/11/06 06:38:12;;;;;;;4.38;3.97;;;;;;;1.17;100.00;95868.56;5068475;28;20029;-68
2022/11/06 06:40:37;;;;;;;4.13;3.85;;;;;;;1.11;100.00;95862.78;5067092;28;20123;-59
2022/11/06 06:43:02;;;;;;;6.65;3.78;;;;;;;1.07;100.00;95860.41;5057992;28;20025;-58
2022/11/06 06:45:28;;;;;;;4.43;3.88;;;;;;;1.10;100.00;95857.66;5067437;28;20051;-59
2022/11/06 06:47:53;;;;;;;4.10;3.65;;;;;;;1.13;100.00;95862.72;5068017;28;20506;-58
2022/11/06 06:50:19;;;;;;;3.90;3.60;;;;;;;1.17;100.00;95861.63;5068228;28;20036;-58
2022/11/06 06:52:44;;;;;;;3.22;3.03;;;;;;;1.20;100.00;95858.00;5067738;28;20044;-59
2022/11/06 06:55:09;;;;;;;3.22;2.75;;;;;;;1.27;100.00;95856.78;5067986;28;20039;-62
2022/11/06 06:57:35;;;;;;;4.80;4.35;;;;;;;1.29;100.00;95865.34;5067492;28;20047;-56
2022/11/06 07:00:00;;;;;;;8.40;5.82;;;;;;;1.34;100.00;95865.91;5067573;28;20122;-56
2022/11/06 07:02:25;;;;;;;5.63;5.05;;;;;;;1.43;100.00;95862.81;5066453;28;20071;-56
2022/11/06 07:04:51;;;;;;;5.30;4.80;;;;;;;1.55;100.00;95852.72;5067457;28;20094;-57
2022/11/06 07:07:16;;;;;;;5.00;4.38;;;;;;;1.68;100.00;95855.50;5066240;28;20037;-56
2022/11/06 07:09:41;;;;;;;5.70;5.20;;;;;;;1.81;100.00;95850.47;5067133;28;20032;-55
2022/11/06 07:12:07;;;;;;;5.80;4.50;;;;;;;1.88;100.00;95859.63;5067162;28;20023;-57
2022/11/06 07:14:32;;;;;;;4.05;3.33;;;;;;;1.94;100.00;95858.41;5067219;28;20071;-70
2022/11/06 07:16:57;;;;;;;7.15;4.40;;;;;;;2.03;100.00;95854.47;5068284;28;20445;-57
2022/11/06 07:19:23;;;;;;;5.00;4.50;;;;;;;2.13;100.00;95861.66;5067489;28;20654;-70
2022/11/06 07:21:52;;;;;;;5.80;5.20;;;;;;;2.22;100.00;95852.53;5066961;28;20402;-70
2022/11/06 07:24:17;;;;;;;5.60;5.15;;;;;;;2.31;100.00;95858.97;5067408;28;20040;-71
2022/11/06 07:26:43;;;;;;;5.97;5.47;;;;;;;2.37;100.00;95862.97;5067580;28;20044;-71
2022/11/06 07:29:08;;;;;;;5.50;5.07;;;;;;;2.43;100.00;95860.88;5068295;28;20035;-70
2022/11/06 07:31:34;;;;;;;7.60;6.72;;;;;;;2.51;100.00;95855.22;5066609;28;20426;-70
2022/11/06 07:33:59;;;;;;;10.55;9.45;;;;;;;2.53;100.00;95861.16;5066711;28;20070;-58
2022/11/06 07:36:24;;;;;;;11.77;10.77;;;;;;;2.58;100.00;95861.75;5067455;28;20024;-70
2022/11/06 07:38:50;;;;;;;9.88;8.93;;;;;;;2.67;100.00;95862.13;5067993;28;20032;-55
2022/11/06 07:41:15;;;;;;;11.68;10.57;;;;;;;2.78;100.00;95858.91;5066755;28;20034;-56
2022/11/06 07:43:41;;;;;;;23.33;20.90;;;;;;;2.81;100.00;95853.53;5066920;28;20059;-57
2022/11/06 07:46:08;;;;;;;20.52;18.48;;;;;;;2.92;100.00;95845.09;5066771;28;20027;-54
2022/11/06 07:48:34;;;;;;;13.23;11.77;;;;;;;2.93;100.00;95849.38;5067169;28;20065;-56
2022/11/06 07:51:05;;;;;;;6.95;6.15;;;;;;;2.91;100.00;95844.28;5067308;28;20032;-55
2022/11/06 07:53:31;;;;;;;5.05;4.65;;;;;;;2.90;100.00;95841.75;5067296;28;20029;-54
2022/11/06 07:55:56;;;;;;;5.07;4.65;;;;;;;2.90;100.00;95844.34;5066958;28;20040;-61
2022/11/06 07:58:22;;;;;;;5.13;4.63;;;;;;;2.78;100.00;95825.97;5066917;28;20036;-52
2022/11/06 08:00:53;;;;;;;5.18;4.68;;;;;;;2.80;100.00;95833.66;5067496;28;20044;-53
2022/11/06 08:03:19;;;;;;;4.18;3.88;;;;;;;2.75;100.00;95827.91;5067438;28;20119;-47
2022/11/06 08:05:45;;;;;;;4.72;4.35;;;;;;;2.75;100.00;95823.50;5066781;28;20124;-54
2022/11/06 08:08:10;;;;;;;7.47;6.65;;;;;;;2.75;100.00;95825.28;5066607;28;20039;-49
2022/11/06 08:10:39;;;;;;;6.55;6.05;;;;;;;2.74;100.00;95827.03;5067272;28;20029;-52
2022/11/06 08:13:10;;;;;;;17.02;12.15;;;;;;;2.77;100.00;95820.84;5067354;28;20040;-61
2022/11/06 08:15:37;;;;;;;25.75;18.00;;;;;;;2.76;100.00;95822.59;5066701;28;20035;-62
2022/11/06 08:18:03;;;;;;;8.00;6.90;;;;;;;2.77;100.00;95820.84;5070234;28;20032;-58
2022/11/06 08:20:29;;;;;;;6.00;5.28;;;;;;;2.79;100.00;95829.38;5070873;28;20498;-59
2022/11/06 08:22:59;;;;;;;4.90;4.50;;;;;;;2.76;100.00;95827.78;5070017;28;20085;-59
2022/11/06 08:25:24;;;;;;;5.03;4.63;;;;;;;2.79;100.00;95827.63;5070252;28;20508;-59
2022/11/06 08:27:49;;;;;;;5.63;5.13;;;;;;;2.83;100.00;95829.13;5070736;28;20041;-59
2022/11/06 08:30:15;;;;;;;7.53;6.43;;;;;;;2.91;100.00;95830.41;5069067;28;20687;-59
2022/11/06 08:32:40;;;;;;;6.78;6.18;;;;;;;3.03;100.00;95826.25;5070151;28;20101;-61
2022/11/06 08:35:06;;;;;;;7.15;6.45;;;;;;;3.17;100.00;95825.41;5069444;28;20040;-56
2022/11/06 08:37:31;;;;;;;9.13;6.82;;;;;;;3.29;100.00;95827.28;5067933;28;20063;-59
2022/11/06 08:39:57;;;;;;;7.45;5.80;;;;;;;3.38;100.00;95821.50;5067198;28;20032;-59
2022/11/06 08:42:22;;;;;;;7.68;7.05;;;;;;;3.52;100.00;95831.03;5068231;28;20036;-59
2022/11/06 08:44:47;;;;;;;10.35;9.40;;;;;;;3.63;100.00;95824.34;5069040;28;20030;-59
2022/11/06 08:47:13;;;;;;;8.32;7.60;;;;;;;3.50;100.00;95824.28;5068868;28;20556;-59
2022/11/06 08:49:38;;;;;;;6.00;5.40;;;;;;;3.54;100.00;95820.56;5068760;28;20506;-59
2022/11/06 08:52:03;;;;;;;4.60;4.30;;;;;;;3.63;100.00;95819.97;5065420;28;20032;-59
2022/11/06 08:54:29;;;;;;;4.60;4.30;;;;;;;3.61;100.00;95808.00;5070469;28;20179;-59
2022/11/06 08:56:56;;;;;;;5.25;4.75;;;;;;;3.67;100.00;95818.88;5085268;28;20032;-59
2022/11/06 08:59:21;;;;;;;5.05;4.55;;;;;;;3.71;100.00;95812.53;5069783;28;20041;-59
2022/11/06 09:01:47;;;;;;;4.30;4.00;;;;;;;3.83;100.00;95807.47;5067730;28;20042;-59
2022/11/06 09:04:12;;;;;;;5.13;4.72;;;;;;;3.88;100.00;95800.22;5069887;28;20036;-58
2022/11/06 09:06:37;;;;;;;4.30;4.00;;;;;;;3.99;100.00;95807.34;5070282;28;20036;-58
2022/11/06 09:09:03;;;;;;;3.55;3.35;;;;;;;4.00;100.00;95806.41;5069652;28;20379;-58
2022/11/06 09:11:28;;;;;;;3.58;3.28;;;;;;;4.06;100.00;95810.38;5068990;28;20055;-59
2022/11/06 09:13:53;;;;;;;3.35;3.05;;;;;;;4.24;100.00;95805.75;5067842;28;20052;-58
2022/11/06 09:16:19;;;;;;;3.08;2.88;;;;;;;4.27;100.00;95806.38;5069914;28;20035;-58
2022/11/06 09:18:44;;;;;;;3.50;3.20;;;;;;;4.38;100.00;95807.44;5068991;28;20056;-59
2022/11/06 09:21:09;;;;;;;4.68;3.25;;;;;;;4.51;100.00;95804.88;5069109;28;20052;-59
2022/11/06 09:23:35;;;;;;;6.22;5.25;;;;;;;4.64;100.00;95795.31;5069788;28;20031;-59
2022/11/06 09:26:00;;;;;;;3.97;3.60;;;;;;;4.73;100.00;95791.22;5066249;28;20033;-59
2022/11/06 09:28:26;;;;;;;3.63;3.33;;;;;;;4.83;100.00;95801.88;5068878;28;20467;-57
2022/11/06 09:30:51;;;;;;;3.40;3.10;;;;;;;4.92;100.00;95801.25;5069000;28;20035;-56
2022/11/06 09:33:16;;;;;;;2.75;2.55;;;;;;;5.03;100.00;95797.91;5066568;28;20144;-66
2022/11/06 09:35:42;;;;;;;2.67;2.58;;;;;;;5.19;100.00;95797.69;5042575;28;20114;-66
2022/11/06 09:38:11;;;;;;;2.67;2.47;;;;;;;5.26;100.00;95792.88;5069273;28;20032;-65
2022/11/06 09:40:45;;;;;;;4.55;2.35;;;;;;;5.31;100.00;95788.16;5069470;28;20579;-65
2022/11/06 09:43:25;;;;;;;2.37;2.20;;;;;;;5.43;100.00;95779.50;5068564;28;20033;-66
2022/11/06 09:45:53;;;;;;;2.08;1.98;;;;;;;5.51;100.00;95783.31;5068809;28;20086;-65
2022/11/06 09:48:33;;;;;;;1.98;1.83;;;;;;;5.62;100.00;95779.94;5050254;28;20048;-55
2022/11/06 09:51:03;;;;;;;2.25;2.15;;;;;;;5.74;100.00;95797.34;5069393;28;20044;-60
2022/11/06 09:53:45;;;;;;;2.40;2.30;;;;;;;5.90;100.00;95799.72;5067906;28;20108;-57
2022/11/06 09:56:13;;;;;;;2.30;2.20;;;;;;;6.01;100.00;95799.78;5066291;28;20040;-58
2022/11/06 09:58:42;;;;;;;2.70;2.20;;;;;;;6.08;100.00;95799.34;5065083;28;20029;-57
2022/11/06 10:01:14;;;;;;;3.17;2.35;;;;;;;6.20;100.00;95795.84;5068207;28;20037;-57
2022/11/06 10:04:02;;;;;;;4.93;2.63;;;;;;;6.37;100.00;95799.00;5069017;28;20048;-57
2022/11/06 10:06:28;;;;;;;2.60;2.40;;;;;;;6.48;100.00;95808.69;5067735;28;20029;-57
2022/11/06 10:08:59;;;;;;;2.88;2.67;;;;;;;6.63;100.00;95806.69;5068808;28;20064;-59
2022/11/06 10:11:40;;;;;;;3.53;3.22;;;;;;;6.75;100.00;95795.31;5068166;28;20040;-61
2022/11/06 10:14:23;;;;;;;3.30;2.60;;;;;;;6.87;100.00;95793.56;5068515;28;20075;-61
2022/11/06 10:16:58;;;;;;;2.30;2.00;;;;;;;6.98;100.00;95795.38;5065822;28;20048;-61
2022/11/06 10:19:38;;;;;;;2.20;2.10;;;;;;;6.92;98.88;95793.19;5068225;28;20055;-61
2022/11/06 10:22:06;;;;;;;2.50;1.85;;;;;;;6.97;100.00;95788.47;5066639;28;20564;-61
2022/11/06 10:24:49;;;;;;;1.83;1.73;;;;;;;7.11;100.00;95790.84;5068087;28;20119;-61
2022/11/06 10:27:17;;;;;;;2.40;2.20;;;;;;;7.17;97.46;95782.50;5067955;28;20024;-55
2022/11/06 10:30:00;;;;;;;3.53;1.90;;;;;;;7.27;99.30;95784.44;5068422;28;20020;-59
2022/11/06 10:32:40;;;;;;;2.25;2.15;;;;;;;7.31;98.59;95786.69;5067862;28;20056;-59
2022/11/06 10:35:22;;;;;;;2.30;2.20;;;;;;;7.43;95.11;95778.81;5064973;28;20048;-59
2022/11/06 10:38:06;;;;;;;2.00;1.90;;;;;;;7.53;95.07;95768.44;5062704;28;20094;-59
2022/11/06 10:40:32;;;;;;;1.73;1.63;;;;;;;7.65;94.56;95766.63;5067657;28;20044;-59
2022/11/06 10:43:12;;;;;;;1.92;1.83;;;;;;;7.68;93.62;95771.63;5067644;28;20036;-59
2022/11/06 10:45:43;;;;;;;1.90;1.80;;;;;;;7.68;91.98;95774.25;5065217;28;20410;-65
2022/11/06 10:48:19;;;;;;;2.28;1.73;;;;;;;7.73;89.48;95770.31;5067267;28;20028;-61
2022/11/06 10:51:18;;;;;;;1.73;1.65;;;;;;;7.85;89.37;95765.06;5068463;28;20548;-61
2022/11/06 10:53:56;;;;;;;1.50;1.50;;;;;;;8.00;86.35;95760.38;5013678;28;20074;-61
2022/11/06 10:56:43;;;;;;;1.85;1.75;;;;;;;8.00;83.19;95766.44;5067751;28;20115;-61
2022/11/06 10:59:08;;;;;;;1.73;1.63;;;;;;;8.05;86.46;95758.19;5065592;28;20634;-61
2022/11/06 11:01:33;;;;;;;3.13;1.67;;;;;;;8.15;86.89;95763.53;5067517;28;20043;-61
2022/11/06 11:03:59;;;;;;;1.70;1.60;;;;;;;8.32;85.09;95749.88;5062859;28;20039;-62
2022/11/06 11:06:25;;;;;;;3.25;1.67;;;;;;;8.39;83.31;95746.72;5055235;28;20464;-54
2022/11/06 11:08:51;;;;;;;1.70;1.60;;;;;;;8.47;83.07;95736.41;5062722;28;20042;-67
2022/11/06 11:11:26;;;;;;;2.22;1.85;;;;;;;8.65;83.58;95730.63;5063494;28;20044;-60
2022/11/06 11:13:54;;;;;;;1.90;1.80;;;;;;;8.78;84.87;95723.41;5060349;28;20050;-60
2022/11/06 11:16:23;;;;;;;2.25;2.00;;;;;;;8.98;82.73;95715.63;5062266;28;20037;-59
2022/11/06 11:18:50;;;;;;;2.83;2.63;;;;;;;9.02;81.89;95706.50;5062202;28;20052;-60
2022/11/06 11:21:18;;;;;;;2.20;2.10;;;;;;;9.15;82.49;95699.22;5062085;28;20098;-60
2022/11/06 11:23:44;;;;;;;4.15;2.20;;;;;;;9.17;80.71;95697.31;5062590;28;20391;-60
2022/11/06 11:26:26;;;;;;;1.95;1.85;;;;;;;9.18;78.50;95692.88;5060964;28;20043;-59
2022/11/06 11:29:12;;;;;;;2.30;2.10;;;;;;;9.32;80.95;95689.03;5058625;28;20440;-49
2022/11/06 11:31:38;;;;;;;1.92;1.83;;;;;;;9.46;79.44;95690.47;5061376;28;20033;-54
2022/11/06 11:34:14;;;;;;;1.90;1.80;;;;;;;9.60;79.41;95686.59;5059348;28;20516;-54
2022/11/06 11:37:03;;;;;;;1.80;1.70;;;;;;;9.49;77.92;95684.94;5062947;28;20028;-54
2022/11/06 11:39:42;;;;;;;2.15;1.60;;;;;;;9.50;73.71;95680.53;5066089;28;20037;-52
2022/11/06 11:42:26;;;;;;;1.50;1.50;;;;;;;9.50;73.59;95668.19;5062656;28;20048;-55
2022/11/06 11:45:07;;;;;;;1.73;1.70;;;;;;;9.66;75.86;95675.56;5065204;28;20035;-61
2022/11/06 11:47:32;;;;;;;2.00;1.90;;;;;;;9.75;75.43;95661.59;5065589;28;20044;-70
2022/11/06 11:50:17;;;;;;;1.98;1.73;;;;;;;9.78;74.07;95671.00;5070865;28;20051;-72
2022/11/06 11:52:45;;;;;;;1.60;1.60;;;;;;;9.78;75.58;95668.38;5064419;28;20044;-70
2022/11/06 11:55:20;;;;;;;2.05;1.80;;;;;;;9.89;76.52;95659.53;5071640;28;20530;-71